»·PEaware :: N822JH KSBP-KSMX

N822JH :: KSBP-KSMX

FLIGHT INFORMATION

Flight Status: Arrived
Operator: Privately registered:
United States
More flights under this callsign
Pilot: Aleksandr Z. (18023)
Aircraft: PIPER PA-24 COMMANCHE
(PA24)
More flights by this aircraft type
Origin: KSBP San Luis Co Regl
United States
Destination: KSMX Santa Maria Pub/Capt Hancock
United States
More flights between these airports :: More routes between these airports
Route:
File this flight plan on PilotEdge
Remarks: A2A Paper24 Comanche 250. Please, don't speak fast. I know English badly.
Altitude:
(Current/Filed)
3,500ft
Speed:
(Current/Filed)
130kts
Departed: 10-Feb-19 09:34 AM
Arrived: 10-Feb-19 09:54 AM
Distance/Time
Traveled:
23nm/0:20
Distance/Time
To Go:
Arrived

Flight Plot

Page will automatically refresh every two minutes.


Map Options




Map Legend


Flown Route
Filed Route
Departure Airport
Arrival Airport
Navaid (VOR, NDB)
Fix

Horizontal Profiles

Position Reports

Time Latitude Longitude Heading Altitude Ground
Speed
10-Feb-19 09:02 35.238258 -120.645789 268 215ft 0kts
10-Feb-19 09:03 35.238258 -120.645789 268 215ft 0kts
10-Feb-19 09:04 35.238258 -120.645789 268 215ft 0kts
10-Feb-19 09:05 35.238258 -120.645789 268 215ft 0kts
10-Feb-19 09:06 35.238258 -120.645789 268 215ft 0kts
10-Feb-19 09:07 35.238258 -120.645789 268 215ft 0kts
10-Feb-19 09:08 35.238258 -120.645789 268 215ft 0kts
10-Feb-19 09:09 35.238258 -120.645789 268 215ft 0kts
10-Feb-19 09:10 35.238258 -120.645789 268 215ft 0kts
10-Feb-19 09:11 35.238258 -120.645789 268 215ft 0kts
10-Feb-19 09:12 35.238258 -120.645789 268 215ft 0kts
10-Feb-19 09:13 35.238258 -120.645789 268 215ft 0kts
10-Feb-19 09:14 35.238258 -120.645789 268 215ft 0kts
10-Feb-19 09:15 35.238258 -120.645789 268 215ft 0kts
10-Feb-19 09:16 35.238258 -120.645789 268 215ft 0kts
10-Feb-19 09:17 35.238258 -120.645789 268 215ft 0kts
10-Feb-19 09:18 35.238258 -120.645789 268 215ft 0kts
10-Feb-19 09:19 35.238258 -120.645789 268 215ft 0kts
10-Feb-19 09:20 35.238258 -120.645789 268 215ft 0kts
10-Feb-19 09:21 35.238258 -120.645789 268 215ft 0kts
10-Feb-19 09:22 35.238258 -120.645789 268 215ft 0kts
10-Feb-19 09:23 35.238258 -120.645789 268 215ft 0kts
10-Feb-19 09:24 35.238258 -120.645789 268 215ft 0kts
10-Feb-19 09:25 35.238258 -120.645789 268 215ft 0kts
10-Feb-19 09:26 35.238258 -120.645790 268 215ft 0kts
10-Feb-19 09:27 35.238258 -120.645793 268 215ft 0kts
10-Feb-19 09:28 35.238116 -120.644733 128 215ft 14kts
10-Feb-19 09:29 35.237300 -120.642746 125 215ft 0kts
10-Feb-19 09:30 35.237299 -120.642745 125 215ft 0kts
10-Feb-19 09:31 35.237298 -120.642743 125 215ft 0kts
10-Feb-19 09:32 35.236868 -120.643425 271 215ft 37kts
10-Feb-19 09:33 35.235866 -120.665027 259 677ft 69kts
10-Feb-19 09:34 35.228403 -120.693171 254 1859ft 88kts
10-Feb-19 09:35 35.213944 -120.714516 196 2188ft 103kts
10-Feb-19 09:36 35.186361 -120.711986 142 2154ft 113kts
10-Feb-19 09:37 35.166797 -120.682997 148 2731ft 106kts
10-Feb-19 09:38 35.146250 -120.655093 143 3415ft 108kts
10-Feb-19 09:39 35.124099 -120.633320 151 3473ft 103kts
10-Feb-19 09:40 35.099113 -120.611966 161 3497ft 108kts
10-Feb-19 09:41 35.073847 -120.596726 173 3426ft 99kts
10-Feb-19 09:42 35.049102 -120.585883 165 3471ft 98kts
10-Feb-19 09:43 35.026512 -120.567074 159 3514ft 93kts
10-Feb-19 09:44 35.004284 -120.548462 159 3389ft 95kts
10-Feb-19 09:45 34.980340 -120.532447 168 2565ft 100kts
10-Feb-19 09:46 34.953753 -120.522009 170 1737ft 100kts
10-Feb-19 09:47 34.929068 -120.508501 167 1182ft 98kts
10-Feb-19 09:48 34.905589 -120.497710 148 1188ft 92kts
10-Feb-19 09:49 34.886386 -120.475035 143 1448ft 104kts
10-Feb-19 09:50 34.867692 -120.447427 128 1386ft 110kts
10-Feb-19 09:51 34.868695 -120.419797 9 1148ft 87kts
10-Feb-19 09:52 34.885425 -120.436892 312 583ft 77kts
10-Feb-19 09:53 34.896842 -120.450442 13 264ft 6kts
10-Feb-19 09:54 34.897670 -120.450314 359 264ft 8kts
10-Feb-19 09:55 34.897415 -120.448908 135 264ft 15kts
10-Feb-19 09:57 34.894822 -120.445225 44 264ft 10kts
10-Feb-19 09:58 34.895530 -120.444882 315 264ft 0kts
10-Feb-19 09:59 34.895530 -120.444882 315 264ft 0kts
10-Feb-19 10:00 34.895530 -120.444882 315 264ft 0kts
10-Feb-19 10:01 34.895530 -120.444882 315 264ft 0kts
10-Feb-19 10:02 34.895530 -120.444882 315 264ft 0kts
10-Feb-19 10:03 34.895530 -120.444882 315 264ft 0kts
10-Feb-19 10:04 34.895530 -120.444882 315 264ft 0kts

Navigation Log

Ident Type
Flight plan parsing failed, navigation log unavailable